Aviation Digital Data Service (ADDS)

Output produced by METARs form (0402 UTC 19 August 2019)
found at http://www.aviationweather.gov/metar/data/
 
Forecast for: HELX (LUXOR (CIV/MIL) , EG)
Text: TAF HELX 182300Z 1900/2006 31010KT CAVOK
Forecast period: 0000 UTC 19 August 2019 to 0600 UTC 20 August 2019
Forecast type: FROM: standard forecast or significant change
Winds: from the NW (310 degrees) at 12 MPH (10 knots; 5.1 m/s)
Visibility: 6 or more miles 10+ km)
Ceiling: unknown
Clouds: missing
Weather: NSW  (no significant weather)